This is the latest recevied weather packets stored in our database for station/object YO6LRV-3. If no packets are shown the sender has not sent any weather packets the latest 10 day(s).
| Time | Temp. | Humidity | Pressure | Rain* | Wind** | Luminosity | Snow |
|---|---|---|---|---|---|---|---|
| 1788035233 | 23.33° C | 52% | 1016 hPa | - | - | - | - |
| 1788034333 | 23.89° C | 52% | 1015.9 hPa | - | - | - | - |
| 1788033433 | 23.89° C | 52% | 1015.9 hPa | - | - | - | - |
| 1788032533 | 23.89° C | 50% | 1015.8 hPa | - | - | - | - |
| 1788031633 | 23.89° C | 48% | 1015.9 hPa | - | - | - | - |
| 1788030735 | 23.89° C | 47% | 1016 hPa | - | - | - | - |
| 1788029835 | 24.44° C | 46% | 1016.1 hPa | - | - | - | - |
| 1788028935 | 24.44° C | 46% | 1016.1 hPa | - | - | - | - |
| 1788028035 | 24.44° C | 43% | 1015.8 hPa | - | - | - | - |
| 1788027135 | 25° C | 42% | 1015.9 hPa | - | - | - | - |
| 1788025334 | 25° C | 42% | 1015.8 hPa | - | - | - | - |
| 1788024434 | 25° C | 41% | 1015.9 hPa | - | - | - | - |
| 1788022634 | 25.56° C | 40% | 1015.6 hPa | - | - | - | - |
| 1788021734 | 26.11° C | 41% | 1015.6 hPa | - | - | - | - |
| 1788020834 | 26.11° C | 41% | 1015.7 hPa | - | - | - | - |
| 1788019934 | 26.67° C | 40% | 1015.7 hPa | - | - | - | - |
| 1788019033 | 26.67° C | 41% | 1015.7 hPa | - | - | - | - |
| 1788018133 | 26.67° C | 40% | 1015.6 hPa | - | - | - | - |
| 1788007365 | 28.89° C | 40% | 1016.8 hPa | - | - | - | - |
| 1787998326 | 23.33° C | 51% | 1018 hPa | - | - | - | - |
| 1787997426 | 22.78° C | 55% | 1018.1 hPa | - | - | - | - |
| 1787996526 | 22.22° C | 55% | 1018.1 hPa | - | - | - | - |
| 1787995626 | 21.11° C | 58% | 1018.2 hPa | - | - | - | - |
| 1787994725 | 21.11° C | 60% | 1018.5 hPa | - | - | - | - |
| 1787993825 | 20° C | 64% | 1018.5 hPa | - | - | - | - |
* Rain since midnight (hover to see other rain measurements)
** Current wind speed in m/s (hover to see current wind gust speed)